ENVAEVVA

Guest
Details From ENVA - Vaernes
To EVVA - VENTSPILS INTL
Flight Number -
Tags decoded
Created
Modified
Stats Distance 491 nm / 909 km
Max Altitude 0 ft / 0 m
Waypoints 7
Social Downloads 0
Likes 0
Share

Download

Looking for another format? Having issues loading an existing format? Contact us
Advertisement - Login to hide

Notes

Requested: ENVA SOLKA N133 MAVIP OXOTI Y96 DEGAL L870 HMR L870 XILAN Y40 RASEL Y130 SOPUN L199 MILTA EVVA Unmatched points: N133 MAVIP OXOTI L870 L870 RASEL Y130 SOPUN L199

Route

ENVA SOLKA DEGAL HMR XILAN MILTA EVVA

ID Type Via Altitude (ft/m) Position (lat/lon) Dist (leg/tot) Name
O ENVA APT - 0 / 0 63.45760 / 10.91798 - / 0 nm Vaernes
SOLKA FIX - 0 / 0 63.33083 / 12.05250 31 / 31 nm
DEGAL FIX - 0 / 0 60.63883 / 17.95667 231 / 263 nm
HMR VOR - 0 / 0 60.27931 / 18.39158 25 / 288 nm HAMMAR VOR-DME
XILAN FIX - 0 / 0 59.65931 / 19.07606 42 / 331 nm
MILTA FIX - 0 / 0 57.68806 / 21.45528 139 / 470 nm
O EVVA APT - 0 / 0 57.35780 / 21.54417 20 / 490 nm VENTSPILS INTL

Altitude Profile

Advertisement - Login to hide

Weather


0- 5 10 15 20 25 30 35+ Temperature / °C

Clouds and Precipitation
Forecast for 2021-03-22 12:00 UTC. Updated 2 months ago

Ground ~20,000 ft ~40,000 ft Winds

ENVA

Details ICAO ENVA (TRD)
Name Trondheim Vaernes
Region Norway
Timezone Europe/Oslo (UTC+2.0)
Stats Elevation 56 ft / 17 m (AMSL)
Location 63.457500° 10.924200°
Runways 1
Magnetic Variation 4.149° E

METAR

ENVA 102150Z 08010KT 050V110 9999 BKN057 11/08 Q0999 RMK WIND 670FT 09008KT

Decode

TAF

TAF AMD ENVA 102008Z 1020/1118 11008KT 9999 FEW050 SCT080 TEMPO 1020/1102 16015G25KT

Decode

Departure Runways

ID Width Length Bearing (true/mag) Surface Threshold Overrun Markings Lighting
09 148 ft / 45 m 9,744 ft / 2,970 m 90.18° / 86.04° ASPHALT 830 ft / 253 m 0 ft / 0 m PREC-APP CENTERLINE EDGE THRESHOLD CALVERT REIL-OMNI
27 148 ft / 45 m 9,744 ft / 2,970 m 270.24° / 266.09° ASPHALT 745 ft / 227 m 0 ft / 0 m PREC-APP CENTERLINE EDGE THRESHOLD CALVERT REIL-OMNI

EVVA

Details ICAO EVVA (VNT)
Name Ventspils International
Region Latvia
Timezone Europe/Riga (UTC+3.0)
Stats Elevation 19 ft / 6 m (AMSL)
Location 57.357800° 21.544200°
Runways 1
Magnetic Variation 7.460° E

METAR

EVVA 102150Z AUTO 15007KT CAVOK 17/08 Q1015

Decode

TAF

Not found

Destination Runways

ID Width Length Bearing (true/mag) Surface Threshold Overrun Markings Lighting
03 100 ft / 31 m 4,246 ft / 1,294 m 35.44° / 27.98° ASPHALT 0 ft / 0 m 0 ft / 0 m PREC-APP EDGE THRESHOLD REIL-OMNI
21 100 ft / 31 m 4,246 ft / 1,294 m 215.45° / 207.99° ASPHALT 0 ft / 0 m 0 ft / 0 m PREC-APP EDGE THRESHOLD SALS REIL-OMNI

Popular Alternatives